• Join FlightAware (Why Join?)
  • Login
  • US Flag 
Gobble Gobble! 
03:17AM EST


 

Airport Tracker/Info


-or-


 

Live Flight TrackerFlight Track Log ✈ N929SR ✈ 09-Apr-2013 ✈ KPDK - KYIP

Flight Track Log - Related Links

Times and Time Zones

All times are in EDT time to prevent confusion due to time zone crossing. See the N929SR flight status page for this flight to view local times or setup timezone preferences in your user account.

Time Position Orientation Groundspeed Altitude Reporting Facility
EDT Latitude Longitude Course Direction KTS MPH feet Rate Location/Type
12:06PM 33.8500 -84.3167 331° Northwest 179 206 2,300  Level Atlanta TRACON
12:08PM 33.9000 -84.3500 331° Northwest 232 267 5,500 3,420 Climbing Atlanta TRACON
12:09PM 33.9667 -84.3500 360° North 252 290 9,600 3,120 Climbing Atlanta TRACON
12:11PM 34.1906 -84.3250 North 332 382 16,300 2,700 Climbing Atlanta Center
12:12PM 34.3033 -84.3128 North 394 453 19,000 2,580 Climbing Atlanta Center
12:13PM 34.4097 -84.3108 North 416 479 21,500 2,700 Climbing Atlanta Center
12:14PM 34.5244 -84.3111 360° North 416 479 24,400 2,940 Climbing Atlanta Center
12:15PM 34.6414 -84.3114 360° North 421 484 27,400 2,880 Climbing Atlanta Center
12:16PM 34.7644 -84.3119 360° North 421 484 30,200 2,640 Climbing Atlanta Center
12:17PM 34.8814 -84.3122 360° North 421 484 32,700 2,400 Climbing Atlanta Center
12:18PM 34.9981 -84.3125 360° North 415 478 35,100 2,400 Climbing Atlanta Center
12:19PM 35.1192 -84.3131 360° North 422 486 37,500 2,400 Climbing Atlanta Center
12:20PM 35.2381 -84.3133 360° North 422 486 39,900 1,740 Climbing Atlanta Center
12:21PM 35.3569 -84.3139 360° North 422 486 41,000 540 Climbing Atlanta Center
12:22PM 35.4739 -84.3117 North 422 486 41,000  Level Atlanta Center
12:23PM 35.5908 -84.3119 360° North 422 486 41,000  Level Atlanta Center
12:24PM 35.7075 -84.3125 360° North 422 486 41,000  Level Atlanta Center
12:25PM 35.8244 -84.3103 North 422 486 41,000  Level Atlanta Center
12:26PM 35.9392 -84.3106 360° North 416 479 41,000  Level Atlanta Center
12:27PM 36.0539 -84.3111 360° North 416 479 41,000  Level Atlanta Center
12:29PM 36.2783 -84.3106 360° North 414 476 41,000  Level Indianapolis Center
12:30PM 36.3953 -84.3100 360° North 420 483 41,000  Level Indianapolis Center
12:31PM 36.5300 -84.3100 360° North 421 484 41,000  Level Indianapolis Center
12:32PM 36.6500 -84.3100 360° North 426 490 41,000  Level Indianapolis Center
12:33PM 36.7694 -84.3114 359° North 428 493 41,000  Level Indianapolis Center
12:34PM 36.8892 -84.3106 360° North 427 491 41,000  Level Indianapolis Center
12:35PM 37.0064 -84.3103 360° North 422 486 41,000  Level Indianapolis Center
12:36PM 37.1247 -84.3106 360° North 423 487 41,000  Level Indianapolis Center
12:37PM 37.2428 -84.3103 360° North 423 487 41,000  Level Indianapolis Center
12:38PM 37.3828 -84.3114 360° North 427 491 41,000  Level Indianapolis Center
12:39PM 37.5011 -84.3125 360° North 424 488 41,000  Level Indianapolis Center
12:40PM 37.6239 -84.3144 359° North 436 502 41,000  Level Indianapolis Center
12:41PM 37.7442 -84.3178 359° North 431 496 41,000  Level Indianapolis Center
12:42PM 37.8639 -84.3225 358° North 431 496 41,000  Level Indianapolis Center
12:43PM 37.9839 -84.3261 359° North 429 494 41,000  Level Indianapolis Center
12:44PM 38.1031 -84.3311 358° North 428 493 41,000  Level Indianapolis Center
12:45PM 38.2228 -84.3344 359° North 427 491 41,000  Level Indianapolis Center
12:46PM 38.3419 -84.3375 359° North 428 493 41,000  Level Indianapolis Center
12:47PM 38.4806 -84.3433 358° North 426 490 41,000 -420 Level Indianapolis Center
12:48PM 38.6006 -84.3481 358° North 430 495 40,200 -1,080 Descending Indianapolis Center
12:49PM 38.7233 -84.3514 359° North 428 493 38,800 -1,440 Descending Indianapolis Center
12:51PM 38.8383 -84.3550 359° North 411 473 37,300 -900 Descending Indianapolis Center
12:52PM 38.9569 -84.3583 359° North 419 482 37,000 -360 Descending Indianapolis Center
12:53PM 39.0781 -84.3625 358° North 427 491 36,600 -1,080 Descending Indianapolis Center
12:54PM 39.1978 -84.3669 358° North 427 491 34,800 -1,860 Descending Indianapolis Center
12:55PM 39.3178 -84.3728 358° North 426 490 32,900 -1,920 Descending Indianapolis Center
12:56PM 39.4433 -84.3764 359° North 441 507 30,900 -1,860 Descending Indianapolis Center
12:57PM 39.5708 -84.3814 358° North 450 518 29,100 -960 Descending Indianapolis Center
12:58PM 39.6983 -84.3858 358° North 451 519 29,000 -60 Descending Indianapolis Center
12:59PM 39.8514 -84.3914 358° North 462 532 29,000  Level Indianapolis Center
01:00PM 39.9836 -84.3947 359° North 467 537 29,000  Level Indianapolis Center
01:01PM 40.1142 -84.3989 359° North 464 534 29,000  Level Indianapolis Center
01:02PM 40.2419 -84.4014 359° North 457 526 29,000  Level Indianapolis Center
01:03PM 40.3694 -84.4061 358° North 452 520 29,000 -240 Level Indianapolis Center
01:04PM 40.4975 -84.4097 359° North 452 520 28,600 -1,020 Descending Indianapolis Center
01:05PM 40.6250 -84.4119 359° North 452 520 27,000 -1,920 Descending Indianapolis Center
01:06PM 40.7528 -84.4156 359° North 454 522 24,700 -1,500 Descending Indianapolis Center
01:07PM 40.8811 -84.4192 359° North 455 524 24,000 -480 Descending Indianapolis Center
01:08PM 40.9761 -84.4228 358° North 455 524 23,900 -900 Descending Cleveland Center
01:09PM 41.1011 -84.4247 359° North 450 518 22,500 -1,680 Descending Cleveland Center
01:10PM 41.2261 -84.4264 359° North 450 518 20,600 -1,800 Descending Cleveland Center
01:11PM 41.3489 -84.4311 358° North 444 511 18,900 -1,800 Descending Cleveland Center
01:12PM 41.4678 -84.4325 359° North 434 499 17,100 -1,860 Descending Cleveland Center
01:13PM 41.5844 -84.4367 358° North 428 493 15,300 -1,800 Descending Cleveland Center
01:14PM 41.7014 -84.4297 North 417 480 13,500 -1,920 Descending Cleveland Center
01:14PM 41.7511 -84.3828 35° Northeast 444 511 12,400 -1,980 Descending Cleveland Center
01:15PM 41.7856 -84.3431 41° Northeast 438 504 11,700 -1,680 Descending Cleveland Center
01:16PM 41.8764 -84.2478 38° Northeast 387 445 10,100 -840 Descending Cleveland Center
01:17PM 41.9478 -84.1681 40° Northeast 365 420 10,000 -240 Descending Cleveland Center
01:18PM 42.0128 -84.0881 42° Northeast 332 382 9,600 -1,320 Descending Cleveland Center
01:19PM 42.0778 -84.0047 44° Northeast 325 374 7,600 -2,220 Descending Cleveland Center
01:20PM 42.1386 -83.9211 46° Northeast 312 359 5,500 -1,800 Descending Cleveland Center
01:20PM 42.1386 -83.9211 46° Northeast 317 365 5,600 -1,380 Climbing Cleveland Center
01:21PM 42.1331 -83.8228 94° East 256 295 4,000 -900 Descending Cleveland Center
01:22PM 42.1206 -83.7522 103° East 169 194 3,900 -480 Descending Cleveland Center
01:23PM 42.1350 -83.6831 74° East 197 227 3,100 -600 Descending Cleveland Center
01:24PM 42.1675 -83.6342 48° Northeast 172 198 2,700 -600 Descending Cleveland Center
01:24PM 42.1789 -83.6136 53° Northeast 159 183 2,300 -900 Descending FAA TRACON SMA TRACON (SMA)
01:24PM 42.1875 -83.6006 48° Northeast 151 174 2,100 -780 Descending FAA TRACON SMA TRACON (SMA)
01:25PM 42.1961 -83.5892 44° Northeast 142 163 1,800 -780 Descending FAA TRACON SMA TRACON (SMA)
01:25PM 42.2061 -83.5750 46° Northeast 142 163 1,600 -720 Descending FAA TRACON SMA TRACON (SMA)
01:25PM 42.2144 -83.5631 47° Northeast 141 162 1,300 -840 Descending FAA TRACON SMA TRACON (SMA)
01:26PM 42.2253 -83.5475 47° Northeast 138 159 1,000 -480 Descending FAA TRACON SMA TRACON (SMA)
01:26PM 42.2253 -83.5475 180° South 138 159 1,000  Level FAA TRACON SMA TRACON (SMA)
01:27PM 42.2253 -83.5475 180° South 138 159 1,000  Level FAA TRACON SMA TRACON (SMA)